sensor_id;sensor_type;location;lat;lon;timestamp;pressure;altitude;pressure_sealevel;temperature
19061;BMP280;9663;48.996;8.334;2023-09-19T00:01:34;99839.91;;;23.49
19061;BMP280;9663;48.996;8.334;2023-09-19T00:04:00;99830.56;;;23.47
19061;BMP280;9663;48.996;8.334;2023-09-19T00:06:29;99839.19;;;23.47
19061;BMP280;9663;48.996;8.334;2023-09-19T00:08:57;99840.91;;;23.47
19061;BMP280;9663;48.996;8.334;2023-09-19T00:11:25;99842.78;;;23.45
19061;BMP280;9663;48.996;8.334;2023-09-19T00:13:52;99846.28;;;23.44
19061;BMP280;9663;48.996;8.334;2023-09-19T00:16:18;99843.91;;;23.41
19061;BMP280;9663;48.996;8.334;2023-09-19T00:18:45;99844.81;;;23.40
19061;BMP280;9663;48.996;8.334;2023-09-19T00:21:11;99846.69;;;23.38
19061;BMP280;9663;48.996;8.334;2023-09-19T00:23:38;99845.88;;;23.37
19061;BMP280;9663;48.996;8.334;2023-09-19T00:26:03;99851.22;;;23.34
19061;BMP280;9663;48.996;8.334;2023-09-19T00:28:29;99844.28;;;23.35
19061;BMP280;9663;48.996;8.334;2023-09-19T00:30:55;99853.81;;;23.34
19061;BMP280;9663;48.996;8.334;2023-09-19T00:33:22;99849.47;;;23.35
19061;BMP280;9663;48.996;8.334;2023-09-19T00:35:53;99857.13;;;23.36
19061;BMP280;9663;48.996;8.334;2023-09-19T00:38:20;99851.03;;;23.37
19061;BMP280;9663;48.996;8.334;2023-09-19T00:40:49;99855.91;;;23.42
19061;BMP280;9663;48.996;8.334;2023-09-19T00:43:16;99855.00;;;23.43
19061;BMP280;9663;48.996;8.334;2023-09-19T00:45:47;99856.63;;;23.44
19061;BMP280;9663;48.996;8.334;2023-09-19T00:48:14;99852.22;;;23.46
19061;BMP280;9663;48.996;8.334;2023-09-19T00:50:43;99866.53;;;23.51
19061;BMP280;9663;48.996;8.334;2023-09-19T00:53:12;99864.56;;;23.55
19061;BMP280;9663;48.996;8.334;2023-09-19T00:55:39;99869.47;;;23.59
19061;BMP280;9663;48.996;8.334;2023-09-19T00:58:08;99870.97;;;23.63
19061;BMP280;9663;48.996;8.334;2023-09-19T01:00:36;99872.63;;;23.64
19061;BMP280;9663;48.996;8.334;2023-09-19T01:03:02;99876.88;;;23.65
19061;BMP280;9663;48.996;8.334;2023-09-19T01:05:28;99877.72;;;23.65
19061;BMP280;9663;48.996;8.334;2023-09-19T01:07:55;99877.53;;;23.68
19061;BMP280;9663;48.996;8.334;2023-09-19T01:10:22;99876.59;;;23.69
19061;BMP280;9663;48.996;8.334;2023-09-19T01:16:31;99887.78;;;23.56
19061;BMP280;9663;48.996;8.334;2023-09-19T01:22:13;99893.69;;;23.72
19061;BMP280;9663;48.996;8.334;2023-09-19T01:30:32;99909.69;;;23.78
19061;BMP280;9663;48.996;8.334;2023-09-19T01:32:59;99896.75;;;23.78
19061;BMP280;9663;48.996;8.334;2023-09-19T01:35:25;99902.00;;;23.77
19061;BMP280;9663;48.996;8.334;2023-09-19T01:37:51;99903.84;;;23.75
19061;BMP280;9663;48.996;8.334;2023-09-19T01:40:21;99914.59;;;23.69
19061;BMP280;9663;48.996;8.334;2023-09-19T01:43:20;99912.00;;;23.55
19061;BMP280;9663;48.996;8.334;2023-09-19T01:46:09;99913.84;;;23.53
19061;BMP280;9663;48.996;8.334;2023-09-19T01:51:56;99911.06;;;23.56
19061;BMP280;9663;48.996;8.334;2023-09-19T01:54:39;99919.75;;;23.55
19061;BMP280;9663;48.996;8.334;2023-09-19T01:57:45;99913.09;;;23.51
19061;BMP280;9663;48.996;8.334;2023-09-19T02:00:16;99922.88;;;23.60
19061;BMP280;9663;48.996;8.334;2023-09-19T02:02:47;99917.56;;;23.63
19061;BMP280;9663;48.996;8.334;2023-09-19T02:05:13;99914.88;;;23.64
19061;BMP280;9663;48.996;8.334;2023-09-19T02:07:47;99918.19;;;23.66
19061;BMP280;9663;48.996;8.334;2023-09-19T02:10:13;99919.69;;;23.70
19061;BMP280;9663;48.996;8.334;2023-09-19T02:12:39;99921.31;;;23.71
19061;BMP280;9663;48.996;8.334;2023-09-19T02:15:05;99923.91;;;23.71
19061;BMP280;9663;48.996;8.334;2023-09-19T02:17:32;99923.09;;;23.71
19061;BMP280;9663;48.996;8.334;2023-09-19T02:19:58;99924.88;;;23.70
19061;BMP280;9663;48.996;8.334;2023-09-19T02:22:26;99929.09;;;23.71
19061;BMP280;9663;48.996;8.334;2023-09-19T02:24:53;99930.94;;;23.69
19061;BMP280;9663;48.996;8.334;2023-09-19T02:27:19;99929.31;;;23.68
19061;BMP280;9663;48.996;8.334;2023-09-19T02:29:45;99938.63;;;23.71
19061;BMP280;9663;48.996;8.334;2023-09-19T02:32:11;99937.72;;;23.72
19061;BMP280;9663;48.996;8.334;2023-09-19T02:34:37;99937.63;;;23.73
19061;BMP280;9663;48.996;8.334;2023-09-19T02:37:07;99935.84;;;23.74
19061;BMP280;9663;48.996;8.334;2023-09-19T02:39:34;99941.03;;;23.74
19061;BMP280;9663;48.996;8.334;2023-09-19T02:42:00;99940.09;;;23.75
19061;BMP280;9663;48.996;8.334;2023-09-19T02:44:26;99941.75;;;23.76
19061;BMP280;9663;48.996;8.334;2023-09-19T02:46:53;99945.25;;;23.75
19061;BMP280;9663;48.996;8.334;2023-09-19T02:49:18;99945.47;;;23.72
19061;BMP280;9663;48.996;8.334;2023-09-19T02:51:44;99955.84;;;23.72
19061;BMP280;9663;48.996;8.334;2023-09-19T02:54:11;99946.41;;;23.71
19061;BMP280;9663;48.996;8.334;2023-09-19T02:56:37;99944.09;;;23.66
19061;BMP280;9663;48.996;8.334;2023-09-19T02:59:03;99965.56;;;23.68
19061;BMP280;9663;48.996;8.334;2023-09-19T03:01:29;99962.19;;;23.66
19061;BMP280;9663;48.996;8.334;2023-09-19T03:03:55;99956.22;;;23.66
19061;BMP280;9663;48.996;8.334;2023-09-19T03:06:22;99956.22;;;23.66
19061;BMP280;9663;48.996;8.334;2023-09-19T03:08:48;99959.63;;;23.66
19061;BMP280;9663;48.996;8.334;2023-09-19T03:11:17;99956.13;;;23.67
19061;BMP280;9663;48.996;8.334;2023-09-19T03:13:55;99957.03;;;23.66
19061;BMP280;9663;48.996;8.334;2023-09-19T03:16:21;99956.13;;;23.67
19061;BMP280;9663;48.996;8.334;2023-09-19T03:18:50;99961.94;;;23.71
19061;BMP280;9663;48.996;8.334;2023-09-19T03:21:16;99964.44;;;23.72
19061;BMP280;9663;48.996;8.334;2023-09-19T03:23:43;99966.19;;;23.72
19061;BMP280;9663;48.996;8.334;2023-09-19T03:26:14;99967.09;;;23.71
19061;BMP280;9663;48.996;8.334;2023-09-19T03:28:42;99961.19;;;23.69
19061;BMP280;9663;48.996;8.334;2023-09-19T03:31:09;99966.47;;;23.67
19061;BMP280;9663;48.996;8.334;2023-09-19T03:33:35;99961.28;;;23.67
19061;BMP280;9663;48.996;8.334;2023-09-19T03:36:02;99967.38;;;23.66
19061;BMP280;9663;48.996;8.334;2023-09-19T03:38:31;99970.81;;;23.67
19061;BMP280;9663;48.996;8.334;2023-09-19T03:40:58;99970.91;;;23.65
19061;BMP280;9663;48.996;8.334;2023-09-19T03:43:24;99970.06;;;23.65
19061;BMP280;9663;48.996;8.334;2023-09-19T03:45:50;99966.75;;;23.63
19061;BMP280;9663;48.996;8.334;2023-09-19T03:48:20;99958.16;;;23.62
19061;BMP280;9663;48.996;8.334;2023-09-19T03:50:47;99967.59;;;23.63
19061;BMP280;9663;48.996;8.334;2023-09-19T03:53:13;99978.88;;;23.62
19061;BMP280;9663;48.996;8.334;2023-09-19T03:55:39;99978.97;;;23.61
19061;BMP280;9663;48.996;8.334;2023-09-19T03:58:05;99981.59;;;23.59
19061;BMP280;9663;48.996;8.334;2023-09-19T04:00:31;99981.69;;;23.58
19061;BMP280;9663;48.996;8.334;2023-09-19T04:02:56;99975.78;;;23.56
19061;BMP280;9663;48.996;8.334;2023-09-19T04:05:23;99977.63;;;23.54
19061;BMP280;9663;48.996;8.334;2023-09-19T04:07:49;99979.38;;;23.54
19061;BMP280;9663;48.996;8.334;2023-09-19T04:10:16;99980.22;;;23.54
19061;BMP280;9663;48.996;8.334;2023-09-19T04:12:54;99982.16;;;23.51
19061;BMP280;9663;48.996;8.334;2023-09-19T04:15:22;99990.66;;;23.53
19061;BMP280;9663;48.996;8.334;2023-09-19T04:17:51;99994.91;;;23.54
19061;BMP280;9663;48.996;8.334;2023-09-19T04:20:18;99996.75;;;23.52
19061;BMP280;9663;48.996;8.334;2023-09-19T04:22:45;100001.84;;;23.53
19061;BMP280;9663;48.996;8.334;2023-09-19T04:25:12;99998.44;;;23.53
19061;BMP280;9663;48.996;8.334;2023-09-19T04:27:37;100006.09;;;23.54
19061;BMP280;9663;48.996;8.334;2023-09-19T04:30:05;100017.28;;;23.55
19061;BMP280;9663;48.996;8.334;2023-09-19T04:32:36;100012.84;;;23.57
19061;BMP280;9663;48.996;8.334;2023-09-19T04:35:04;100023.94;;;23.58
19061;BMP280;9663;48.996;8.334;2023-09-19T04:37:31;100010.06;;;23.59
19061;BMP280;9663;48.996;8.334;2023-09-19T04:39:58;100016.94;;;23.60
19061;BMP280;9663;48.996;8.334;2023-09-19T04:42:23;100018.75;;;23.58
19061;BMP280;9663;48.996;8.334;2023-09-19T04:44:50;100023.94;;;23.58
19061;BMP280;9663;48.996;8.334;2023-09-19T04:47:19;100016.94;;;23.60
19061;BMP280;9663;48.996;8.334;2023-09-19T04:49:45;100018.59;;;23.61
19061;BMP280;9663;48.996;8.334;2023-09-19T04:52:10;100031.56;;;23.61
19061;BMP280;9663;48.996;8.334;2023-09-19T04:54:36;100030.78;;;23.59
19061;BMP280;9663;48.996;8.334;2023-09-19T04:57:02;100030.78;;;23.59
19061;BMP280;9663;48.996;8.334;2023-09-19T04:59:27;100043.72;;;23.59
19061;BMP280;9663;48.996;8.334;2023-09-19T05:01:54;100039.47;;;23.58
19061;BMP280;9663;48.996;8.334;2023-09-19T05:04:19;100040.41;;;23.58
19061;BMP280;9663;48.996;8.334;2023-09-19T05:06:45;100044.56;;;23.60
19061;BMP280;9663;48.996;8.334;2023-09-19T05:09:11;100050.59;;;23.60
19061;BMP280;9663;48.996;8.334;2023-09-19T05:11:36;100056.66;;;23.59
19061;BMP280;9663;48.996;8.334;2023-09-19T05:14:03;100051.66;;;23.57
19061;BMP280;9663;48.996;8.334;2023-09-19T05:16:30;100070.91;;;23.53
19061;BMP280;9663;48.996;8.334;2023-09-19T05:18:58;100069.41;;;23.49
19061;BMP280;9663;48.996;8.334;2023-09-19T05:21:26;100076.34;;;23.48
19061;BMP280;9663;48.996;8.334;2023-09-19T05:23:54;100077.38;;;23.46
19061;BMP280;9663;48.996;8.334;2023-09-19T05:26:20;100078.94;;;23.48
19061;BMP280;9663;48.996;8.334;2023-09-19T05:28:46;100088.38;;;23.49
19061;BMP280;9663;48.996;8.334;2023-09-19T05:31:13;100090.88;;;23.51
19061;BMP280;9663;48.996;8.334;2023-09-19T05:33:40;100089.13;;;23.51
19061;BMP280;9663;48.996;8.334;2023-09-19T05:36:06;100098.56;;;23.52
19061;BMP280;9663;48.996;8.334;2023-09-19T05:38:35;100091.72;;;23.51
19061;BMP280;9663;48.996;8.334;2023-09-19T05:41:00;100098.72;;;23.49
19061;BMP280;9663;48.996;8.334;2023-09-19T05:43:27;100100.38;;;23.50
19061;BMP280;9663;48.996;8.334;2023-09-19T05:45:53;100098.81;;;23.48
19061;BMP280;9663;48.996;8.334;2023-09-19T05:48:22;100101.31;;;23.49
19061;BMP280;9663;48.996;8.334;2023-09-19T05:50:47;100105.75;;;23.47
19061;BMP280;9663;48.996;8.334;2023-09-19T05:53:15;100112.69;;;23.47
19061;BMP280;9663;48.996;8.334;2023-09-19T05:55:41;100109.25;;;23.46
19061;BMP280;9663;48.996;8.334;2023-09-19T05:58:07;100112.84;;;23.44
19061;BMP280;9663;48.996;8.334;2023-09-19T06:00:34;100120.72;;;23.42
19061;BMP280;9663;48.996;8.334;2023-09-19T06:03:00;100126.06;;;23.39
19061;BMP280;9663;48.996;8.334;2023-09-19T06:05:27;100120.16;;;23.37
19061;BMP280;9663;48.996;8.334;2023-09-19T06:07:53;100126.34;;;23.35
19061;BMP280;9663;48.996;8.334;2023-09-19T06:10:19;100133.44;;;23.31
19061;BMP280;9663;48.996;8.334;2023-09-19T06:12:49;100130.19;;;23.28
19061;BMP280;9663;48.996;8.334;2023-09-19T06:15:16;100138.13;;;23.25
19061;BMP280;9663;48.996;8.334;2023-09-19T06:17:49;100132.97;;;23.25
19061;BMP280;9663;48.996;8.334;2023-09-19T06:20:15;100132.97;;;23.25
19061;BMP280;9663;48.996;8.334;2023-09-19T06:22:43;100129.56;;;23.24
19061;BMP280;9663;48.996;8.334;2023-09-19T06:25:11;100139.03;;;23.24
19061;BMP280;9663;48.996;8.334;2023-09-19T06:27:40;100142.50;;;23.24
19061;BMP280;9663;48.996;8.334;2023-09-19T06:30:11;100144.13;;;23.25
19061;BMP280;9663;48.996;8.334;2023-09-19T06:32:41;100146.72;;;23.25
19061;BMP280;9663;48.996;8.334;2023-09-19T06:35:14;100153.50;;;23.28
19061;BMP280;9663;48.996;8.334;2023-09-19T06:37:42;100146.56;;;23.28
19061;BMP280;9663;48.996;8.334;2023-09-19T06:40:10;100142.19;;;23.29
19061;BMP280;9663;48.996;8.334;2023-09-19T06:43:00;100156.31;;;23.23
19061;BMP280;9663;48.996;8.334;2023-09-19T06:45:27;100161.09;;;23.31
19061;BMP280;9663;48.996;8.334;2023-09-19T06:47:53;100154.97;;;23.32
19061;BMP280;9663;48.996;8.334;2023-09-19T06:50:23;100157.31;;;23.36
19061;BMP280;9663;48.996;8.334;2023-09-19T06:52:52;100161.38;;;23.40
19061;BMP280;9663;48.996;8.334;2023-09-19T06:55:20;100164.81;;;23.41
19061;BMP280;9663;48.996;8.334;2023-09-19T06:57:47;100170.63;;;23.44
19061;BMP280;9663;48.996;8.334;2023-09-19T07:00:14;100157.41;;;23.49
19061;BMP280;9663;48.996;8.334;2023-09-19T07:05:30;100173.16;;;23.59
19061;BMP280;9663;48.996;8.334;2023-09-19T07:08:00;100163.41;;;23.64
19061;BMP280;9663;48.996;8.334;2023-09-19T07:10:28;100168.16;;;23.72
19061;BMP280;9663;48.996;8.334;2023-09-19T07:13:05;100166.13;;;23.77
19061;BMP280;9663;48.996;8.334;2023-09-19T07:15:35;100180.28;;;23.85
19061;BMP280;9663;48.996;8.334;2023-09-19T07:18:13;100180.84;;;23.90
19061;BMP280;9663;48.996;8.334;2023-09-19T07:20:40;100167.50;;;23.96
19061;BMP280;9663;48.996;8.334;2023-09-19T07:23:11;100182.34;;;24.08
19061;BMP280;9663;48.996;8.334;2023-09-19T07:25:39;100177.34;;;24.19
19061;BMP280;9663;48.996;8.334;2023-09-19T07:28:06;100177.72;;;24.27
19061;BMP280;9663;48.996;8.334;2023-09-19T07:30:32;100189.59;;;24.31
19061;BMP280;9663;48.996;8.334;2023-09-19T07:33:01;100184.13;;;24.35
19061;BMP280;9663;48.996;8.334;2023-09-19T07:35:28;100184.84;;;24.37
19061;BMP280;9663;48.996;8.334;2023-09-19T07:37:54;100185.63;;;24.39
19061;BMP280;9663;48.996;8.334;2023-09-19T07:40:20;100194.69;;;24.46
19061;BMP280;9663;48.996;8.334;2023-09-19T07:42:46;100196.16;;;24.50
19061;BMP280;9663;48.996;8.334;2023-09-19T07:45:13;100194.88;;;24.57
19061;BMP280;9663;48.996;8.334;2023-09-19T07:47:50;100198.81;;;24.62
19061;BMP280;9663;48.996;8.334;2023-09-19T07:50:19;100203.44;;;24.71
19061;BMP280;9663;48.996;8.334;2023-09-19T07:52:50;100202.00;;;24.80
19061;BMP280;9663;48.996;8.334;2023-09-19T07:55:20;100206.75;;;24.87
19061;BMP280;9663;48.996;8.334;2023-09-19T07:57:49;100213.97;;;24.96
19061;BMP280;9663;48.996;8.334;2023-09-19T08:00:15;100215.19;;;25.04
19061;BMP280;9663;48.996;8.334;2023-09-19T08:02:42;100210.22;;;25.14
19061;BMP280;9663;48.996;8.334;2023-09-19T08:05:13;100210.38;;;25.25
19061;BMP280;9663;48.996;8.334;2023-09-19T08:07:44;100220.91;;;25.35
19061;BMP280;9663;48.996;8.334;2023-09-19T08:10:15;100216.66;;;25.47
19061;BMP280;9663;48.996;8.334;2023-09-19T08:12:43;100216.06;;;25.56
19061;BMP280;9663;48.996;8.334;2023-09-19T08:15:16;100213.13;;;25.62
19061;BMP280;9663;48.996;8.334;2023-09-19T08:17:43;100221.44;;;25.67
19061;BMP280;9663;48.996;8.334;2023-09-19T08:20:10;100218.50;;;25.71
19061;BMP280;9663;48.996;8.334;2023-09-19T08:22:53;100222.78;;;25.72
19061;BMP280;9663;48.996;8.334;2023-09-19T08:25:23;100230.28;;;25.77
19061;BMP280;9663;48.996;8.334;2023-09-19T08:27:50;100217.91;;;25.80
19061;BMP280;9663;48.996;8.334;2023-09-19T08:30:18;100222.78;;;25.84
19061;BMP280;9663;48.996;8.334;2023-09-19T08:32:45;100229.38;;;25.90
19061;BMP280;9663;48.996;8.334;2023-09-19T08:35:14;100226.34;;;25.96
19061;BMP280;9663;48.996;8.334;2023-09-19T08:37:39;100222.41;;;26.03
19061;BMP280;9663;48.996;8.334;2023-09-19T08:40:05;100230.59;;;26.09
19061;BMP280;9663;48.996;8.334;2023-09-19T08:42:55;100231.13;;;26.14
19061;BMP280;9663;48.996;8.334;2023-09-19T08:45:23;100229.06;;;26.19
19061;BMP280;9663;48.996;8.334;2023-09-19T08:48:24;100223.66;;;26.10
19061;BMP280;9663;48.996;8.334;2023-09-19T08:51:00;100232.91;;;26.14
19061;BMP280;9663;48.996;8.334;2023-09-19T08:53:51;100226.25;;;26.10
19061;BMP280;9663;48.996;8.334;2023-09-19T08:56:18;100226.16;;;26.11
19061;BMP280;9663;48.996;8.334;2023-09-19T08:59:05;100233.72;;;26.14
19061;BMP280;9663;48.996;8.334;2023-09-19T09:01:33;100226.25;;;26.22
19061;BMP280;9663;48.996;8.334;2023-09-19T09:04:02;100236.88;;;26.31
19061;BMP280;9663;48.996;8.334;2023-09-19T09:06:28;100234.19;;;26.33
19061;BMP280;9663;48.996;8.334;2023-09-19T09:08:55;100229.59;;;26.36
19061;BMP280;9663;48.996;8.334;2023-09-19T09:11:22;100232.63;;;26.43
19061;BMP280;9663;48.996;8.334;2023-09-19T09:13:50;100221.81;;;26.49
19061;BMP280;9663;48.996;8.334;2023-09-19T09:16:15;100234.16;;;26.58
19061;BMP280;9663;48.996;8.334;2023-09-19T09:18:45;100213.66;;;26.65
19061;BMP280;9663;48.996;8.334;2023-09-19T09:21:12;100223.84;;;26.68
19061;BMP280;9663;48.996;8.334;2023-09-19T09:23:39;100224.47;;;26.72
19061;BMP280;9663;48.996;8.334;2023-09-19T09:26:04;100223.59;;;26.84
19061;BMP280;9663;48.996;8.334;2023-09-19T09:28:33;100218.59;;;26.93
19061;BMP280;9663;48.996;8.334;2023-09-19T09:31:01;100229.06;;;27.04
19061;BMP280;9663;48.996;8.334;2023-09-19T09:33:31;100220.50;;;27.14
19061;BMP280;9663;48.996;8.334;2023-09-19T09:35:59;100226.50;;;27.27
19061;BMP280;9663;48.996;8.334;2023-09-19T09:38:47;100220.81;;;27.33
19061;BMP280;9663;48.996;8.334;2023-09-19T09:41:36;100213.28;;;27.41
19061;BMP280;9663;48.996;8.334;2023-09-19T09:44:14;100229.22;;;27.49
19061;BMP280;9663;48.996;8.334;2023-09-19T09:46:48;100214.91;;;27.54
19061;BMP280;9663;48.996;8.334;2023-09-19T09:49:27;100225.31;;;27.54
19061;BMP280;9663;48.996;8.334;2023-09-19T09:52:07;100221.69;;;27.57
19061;BMP280;9663;48.996;8.334;2023-09-19T09:55:03;100223.69;;;27.53
19061;BMP280;9663;48.996;8.334;2023-09-19T09:57:31;100227.88;;;27.67
19061;BMP280;9663;48.996;8.334;2023-09-19T09:59:59;100237.38;;;27.79
19061;BMP280;9663;48.996;8.334;2023-09-19T10:02:37;100220.09;;;27.89
19061;BMP280;9663;48.996;8.334;2023-09-19T10:05:17;100220.25;;;27.98
19061;BMP280;9663;48.996;8.334;2023-09-19T10:07:53;100230.97;;;28.06
19061;BMP280;9663;48.996;8.334;2023-09-19T10:10:42;100222.19;;;28.07
19061;BMP280;9663;48.996;8.334;2023-09-19T10:13:13;100227.41;;;28.18
19061;BMP280;9663;48.996;8.334;2023-09-19T10:15:48;100234.44;;;28.17
19061;BMP280;9663;48.996;8.334;2023-09-19T10:18:21;100228.00;;;28.10
19061;BMP280;9663;48.996;8.334;2023-09-19T10:20:48;100233.31;;;28.09
19061;BMP280;9663;48.996;8.334;2023-09-19T10:23:18;100234.41;;;28.06
19061;BMP280;9663;48.996;8.334;2023-09-19T10:25:56;100226.25;;;28.11
19061;BMP280;9663;48.996;8.334;2023-09-19T10:28:23;100218.41;;;28.22
19061;BMP280;9663;48.996;8.334;2023-09-19T10:30:53;100228.03;;;28.32
19061;BMP280;9663;48.996;8.334;2023-09-19T10:33:24;100214.16;;;28.42
19061;BMP280;9663;48.996;8.334;2023-09-19T10:35:58;100213.31;;;28.53
19061;BMP280;9663;48.996;8.334;2023-09-19T10:38:27;100214.50;;;28.49
19061;BMP280;9663;48.996;8.334;2023-09-19T10:40:56;100217.00;;;28.39
19061;BMP280;9663;48.996;8.334;2023-09-19T10:43:35;100212.84;;;28.26
19061;BMP280;9663;48.996;8.334;2023-09-19T10:46:07;100225.63;;;28.18
19061;BMP280;9663;48.996;8.334;2023-09-19T10:48:37;100210.47;;;28.12
19061;BMP280;9663;48.996;8.334;2023-09-19T10:51:23;100217.94;;;28.06
19061;BMP280;9663;48.996;8.334;2023-09-19T10:54:05;100217.44;;;28.12
19061;BMP280;9663;48.996;8.334;2023-09-19T10:56:38;100214.63;;;28.15
19061;BMP280;9663;48.996;8.334;2023-09-19T10:59:12;100216.88;;;28.19
19061;BMP280;9663;48.996;8.334;2023-09-19T11:01:52;100213.31;;;28.20
19061;BMP280;9663;48.996;8.334;2023-09-19T11:04:30;100206.69;;;28.27
19061;BMP280;9663;48.996;8.334;2023-09-19T11:07:12;100211.91;;;28.38
19061;BMP280;9663;48.996;8.334;2023-09-19T11:09:54;100213.81;;;28.36
19061;BMP280;9663;48.996;8.334;2023-09-19T11:14:56;100222.81;;;28.32
19061;BMP280;9663;48.996;8.334;2023-09-19T11:17:35;100203.13;;;28.39
19061;BMP280;9663;48.996;8.334;2023-09-19T11:30:45;100175.31;;;32.52
19061;BMP280;9663;48.996;8.334;2023-09-19T11:33:47;100170.25;;;33.64
19061;BMP280;9663;48.996;8.334;2023-09-19T11:36:16;100163.34;;;34.13
19061;BMP280;9663;48.996;8.334;2023-09-19T11:46:27;100175.59;;;32.76
19061;BMP280;9663;48.996;8.334;2023-09-19T11:48:54;100157.13;;;32.94
19061;BMP280;9663;48.996;8.334;2023-09-19T11:51:24;100146.50;;;33.73
19061;BMP280;9663;48.996;8.334;2023-09-19T11:53:57;100140.25;;;34.73
19061;BMP280;9663;48.996;8.334;2023-09-19T11:56:27;100140.53;;;35.51
19061;BMP280;9663;48.996;8.334;2023-09-19T11:58:55;100136.47;;;36.26
19061;BMP280;9663;48.996;8.334;2023-09-19T12:01:32;100133.06;;;36.86
19061;BMP280;9663;48.996;8.334;2023-09-19T12:04:03;100133.88;;;37.31
19061;BMP280;9663;48.996;8.334;2023-09-19T12:06:30;100128.19;;;37.93
19061;BMP280;9663;48.996;8.334;2023-09-19T12:08:58;100115.81;;;38.71
19061;BMP280;9663;48.996;8.334;2023-09-19T12:11:42;100109.28;;;39.30
19061;BMP280;9663;48.996;8.334;2023-09-19T12:14:09;100111.72;;;39.52
19061;BMP280;9663;48.996;8.334;2023-09-19T12:16:35;100109.78;;;39.39
19061;BMP280;9663;48.996;8.334;2023-09-19T12:19:19;100113.00;;;39.35
19061;BMP280;9663;48.996;8.334;2023-09-19T12:22:02;100105.28;;;39.40
19061;BMP280;9663;48.996;8.334;2023-09-19T12:24:32;100110.81;;;38.83
19061;BMP280;9663;48.996;8.334;2023-09-19T12:27:06;100102.25;;;37.88
19061;BMP280;9663;48.996;8.334;2023-09-19T12:29:46;100112.94;;;36.77
19061;BMP280;9663;48.996;8.334;2023-09-19T12:32:14;100113.88;;;36.16
19061;BMP280;9663;48.996;8.334;2023-09-19T12:34:50;100092.59;;;36.55
19061;BMP280;9663;48.996;8.334;2023-09-19T12:37:18;100085.94;;;37.12
19061;BMP280;9663;48.996;8.334;2023-09-19T12:39:52;100088.78;;;37.47
19061;BMP280;9663;48.996;8.334;2023-09-19T12:42:27;100084.72;;;37.59
19061;BMP280;9663;48.996;8.334;2023-09-19T12:45:01;100093.22;;;37.68
19061;BMP280;9663;48.996;8.334;2023-09-19T12:47:28;100082.50;;;37.99
19061;BMP280;9663;48.996;8.334;2023-09-19T12:50:15;100081.72;;;38.19
19061;BMP280;9663;48.996;8.334;2023-09-19T12:52:48;100088.84;;;37.90
19061;BMP280;9663;48.996;8.334;2023-09-19T12:55:31;100088.88;;;37.17
19061;BMP280;9663;48.996;8.334;2023-09-19T12:58:13;100085.75;;;36.38
19061;BMP280;9663;48.996;8.334;2023-09-19T13:00:45;100072.09;;;35.89
19061;BMP280;9663;48.996;8.334;2023-09-19T13:03:25;100079.47;;;36.01
19061;BMP280;9663;48.996;8.334;2023-09-19T13:05:59;100080.22;;;36.18
19061;BMP280;9663;48.996;8.334;2023-09-19T13:08:39;100067.22;;;36.08
19061;BMP280;9663;48.996;8.334;2023-09-19T13:11:17;100067.00;;;35.72
19061;BMP280;9663;48.996;8.334;2023-09-19T13:13:51;100067.53;;;35.51
19061;BMP280;9663;48.996;8.334;2023-09-19T13:16:21;100077.78;;;34.99
19061;BMP280;9663;48.996;8.334;2023-09-19T13:18:51;100067.59;;;34.39
19061;BMP280;9663;48.996;8.334;2023-09-19T13:21:27;100076.28;;;33.91
19061;BMP280;9663;48.996;8.334;2023-09-19T13:23:55;100052.88;;;33.55
19061;BMP280;9663;48.996;8.334;2023-09-19T13:26:28;100070.25;;;33.30
19061;BMP280;9663;48.996;8.334;2023-09-19T13:28:56;100060.34;;;33.24
19061;BMP280;9663;48.996;8.334;2023-09-19T13:31:22;100070.94;;;33.15
19061;BMP280;9663;48.996;8.334;2023-09-19T13:33:49;100065.53;;;33.17
19061;BMP280;9663;48.996;8.334;2023-09-19T13:36:16;100069.34;;;33.39
19061;BMP280;9663;48.996;8.334;2023-09-19T13:38:44;100065.13;;;34.05
19061;BMP280;9663;48.996;8.334;2023-09-19T13:41:10;100057.66;;;34.90
19061;BMP280;9663;48.996;8.334;2023-09-19T13:43:37;100056.81;;;35.21
19061;BMP280;9663;48.996;8.334;2023-09-19T13:46:04;100059.16;;;35.32
19061;BMP280;9663;48.996;8.334;2023-09-19T13:48:30;100052.06;;;35.41
19061;BMP280;9663;48.996;8.334;2023-09-19T13:50:56;100039.81;;;35.71
19061;BMP280;9663;48.996;8.334;2023-09-19T13:53:23;100037.63;;;36.21
19061;BMP280;9663;48.996;8.334;2023-09-19T13:55:49;100043.59;;;36.15
19061;BMP280;9663;48.996;8.334;2023-09-19T13:58:15;100043.91;;;36.20
19061;BMP280;9663;48.996;8.334;2023-09-19T14:00:40;100045.47;;;36.67
19061;BMP280;9663;48.996;8.334;2023-09-19T14:03:06;100041.13;;;37.18
19061;BMP280;9663;48.996;8.334;2023-09-19T14:05:32;100035.53;;;37.50
19061;BMP280;9663;48.996;8.334;2023-09-19T14:07:58;100034.16;;;37.54
19061;BMP280;9663;48.996;8.334;2023-09-19T14:10:25;100048.34;;;37.24
19061;BMP280;9663;48.996;8.334;2023-09-19T14:12:53;100037.34;;;37.35
19061;BMP280;9663;48.996;8.334;2023-09-19T14:15:19;100020.78;;;37.69
19061;BMP280;9663;48.996;8.334;2023-09-19T14:17:44;100035.56;;;38.07
19061;BMP280;9663;48.996;8.334;2023-09-19T14:20:11;100037.56;;;38.40
19061;BMP280;9663;48.996;8.334;2023-09-19T14:22:37;100038.44;;;38.61
19061;BMP280;9663;48.996;8.334;2023-09-19T14:25:04;100031.00;;;38.36
19061;BMP280;9663;48.996;8.334;2023-09-19T14:27:30;100030.63;;;38.04
19061;BMP280;9663;48.996;8.334;2023-09-19T14:29:56;100030.41;;;37.34
19061;BMP280;9663;48.996;8.334;2023-09-19T14:32:23;100028.28;;;36.93
19061;BMP280;9663;48.996;8.334;2023-09-19T14:34:49;100033.00;;;36.83
19061;BMP280;9663;48.996;8.334;2023-09-19T14:37:15;100021.03;;;37.09
19061;BMP280;9663;48.996;8.334;2023-09-19T14:39:42;100021.91;;;37.53
19061;BMP280;9663;48.996;8.334;2023-09-19T14:42:10;100023.97;;;37.65
19061;BMP280;9663;48.996;8.334;2023-09-19T14:44:39;100013.00;;;37.54
19061;BMP280;9663;48.996;8.334;2023-09-19T14:47:04;100015.41;;;37.12
19061;BMP280;9663;48.996;8.334;2023-09-19T14:49:34;100023.84;;;36.41
19061;BMP280;9663;48.996;8.334;2023-09-19T14:52:00;100013.75;;;35.68
19061;BMP280;9663;48.996;8.334;2023-09-19T14:54:30;100025.88;;;35.15
19061;BMP280;9663;48.996;8.334;2023-09-19T14:56:56;100026.88;;;35.06
19061;BMP280;9663;48.996;8.334;2023-09-19T14:59:32;100021.59;;;34.98
19061;BMP280;9663;48.996;8.334;2023-09-19T15:01:59;100011.72;;;34.85
19061;BMP280;9663;48.996;8.334;2023-09-19T15:04:26;100017.13;;;34.75
19061;BMP280;9663;48.996;8.334;2023-09-19T15:06:53;100023.06;;;34.61